sensor_id;sensor_type;location;lat;lon;timestamp;P1;durP1;ratioP1;P2;durP2;ratioP2
73898;SDS011;62234;50.892;12.724;2023-06-26T00:01:08;2.10;;;2.00;;
73898;SDS011;62234;50.892;12.724;2023-06-26T00:03:33;1.98;;;1.88;;
73898;SDS011;62234;50.892;12.724;2023-06-26T00:05:59;2.42;;;1.98;;
73898;SDS011;62234;50.892;12.724;2023-06-26T00:08:26;2.33;;;1.80;;
73898;SDS011;62234;50.892;12.724;2023-06-26T00:10:52;1.58;;;1.48;;
73898;SDS011;62234;50.892;12.724;2023-06-26T00:13:18;1.90;;;1.80;;
73898;SDS011;62234;50.892;12.724;2023-06-26T00:15:44;2.22;;;1.80;;
73898;SDS011;62234;50.892;12.724;2023-06-26T00:18:09;1.80;;;1.70;;
73898;SDS011;62234;50.892;12.724;2023-06-26T00:20:35;1.80;;;1.70;;
73898;SDS011;62234;50.892;12.724;2023-06-26T00:23:01;1.70;;;1.60;;
73898;SDS011;62234;50.892;12.724;2023-06-26T00:25:32;4.10;;;2.40;;
73898;SDS011;62234;50.892;12.724;2023-06-26T00:27:59;4.45;;;2.65;;
73898;SDS011;62234;50.892;12.724;2023-06-26T00:30:26;5.75;;;2.60;;
73898;SDS011;62234;50.892;12.724;2023-06-26T00:32:51;7.53;;;3.03;;
73898;SDS011;62234;50.892;12.724;2023-06-26T00:35:17;4.80;;;2.20;;
73898;SDS011;62234;50.892;12.724;2023-06-26T00:37:43;3.22;;;2.78;;
73898;SDS011;62234;50.892;12.724;2023-06-26T00:40:09;5.30;;;2.15;;
73898;SDS011;62234;50.892;12.724;2023-06-26T00:42:35;3.72;;;2.72;;
73898;SDS011;62234;50.892;12.724;2023-06-26T00:45:01;3.38;;;2.80;;
73898;SDS011;62234;50.892;12.724;2023-06-26T00:47:28;4.45;;;3.15;;
73898;SDS011;62234;50.892;12.724;2023-06-26T00:49:54;3.33;;;3.00;;
73898;SDS011;62234;50.892;12.724;2023-06-26T00:52:21;6.68;;;3.28;;
73898;SDS011;62234;50.892;12.724;2023-06-26T00:54:48;5.72;;;3.03;;
73898;SDS011;62234;50.892;12.724;2023-06-26T00:57:16;2.75;;;2.55;;
73898;SDS011;62234;50.892;12.724;2023-06-26T00:59:42;3.30;;;3.00;;
73898;SDS011;62234;50.892;12.724;2023-06-26T01:02:08;3.50;;;3.20;;
73898;SDS011;62234;50.892;12.724;2023-06-26T01:04:34;3.28;;;2.88;;
73898;SDS011;62234;50.892;12.724;2023-06-26T01:07:01;6.65;;;3.10;;
73898;SDS011;62234;50.892;12.724;2023-06-26T01:09:27;3.22;;;2.92;;
73898;SDS011;62234;50.892;12.724;2023-06-26T01:11:53;4.00;;;2.83;;
73898;SDS011;62234;50.892;12.724;2023-06-26T01:14:19;12.20;;;3.40;;
73898;SDS011;62234;50.892;12.724;2023-06-26T01:16:45;3.10;;;2.80;;
73898;SDS011;62234;50.892;12.724;2023-06-26T01:19:25;2.75;;;2.55;;
73898;SDS011;62234;50.892;12.724;2023-06-26T01:22:02;3.22;;;2.92;;
73898;SDS011;62234;50.892;12.724;2023-06-26T01:24:32;3.67;;;3.20;;
73898;SDS011;62234;50.892;12.724;2023-06-26T01:26:59;4.43;;;3.33;;
73898;SDS011;62234;50.892;12.724;2023-06-26T01:29:25;3.63;;;2.70;;
73898;SDS011;62234;50.892;12.724;2023-06-26T01:31:51;13.00;;;3.20;;
73898;SDS011;62234;50.892;12.724;2023-06-26T01:34:17;2.80;;;2.60;;
73898;SDS011;62234;50.892;12.724;2023-06-26T01:36:43;4.55;;;3.00;;
73898;SDS011;62234;50.892;12.724;2023-06-26T01:39:09;3.70;;;2.67;;
73898;SDS011;62234;50.892;12.724;2023-06-26T01:41:36;2.90;;;2.70;;
73898;SDS011;62234;50.892;12.724;2023-06-26T01:44:13;3.22;;;2.92;;
73898;SDS011;62234;50.892;12.724;2023-06-26T01:46:48;3.63;;;2.83;;
73898;SDS011;62234;50.892;12.724;2023-06-26T01:49:21;3.80;;;3.10;;
73898;SDS011;62234;50.892;12.724;2023-06-26T01:51:51;3.17;;;2.88;;
73898;SDS011;62234;50.892;12.724;2023-06-26T01:54:18;5.15;;;3.00;;
73898;SDS011;62234;50.892;12.724;2023-06-26T01:56:48;2.95;;;2.72;;
73898;SDS011;62234;50.892;12.724;2023-06-26T01:59:14;4.38;;;2.80;;
73898;SDS011;62234;50.892;12.724;2023-06-26T02:01:41;4.50;;;3.10;;
73898;SDS011;62234;50.892;12.724;2023-06-26T02:04:07;4.53;;;2.50;;
73898;SDS011;62234;50.892;12.724;2023-06-26T02:06:32;8.77;;;3.03;;
73898;SDS011;62234;50.892;12.724;2023-06-26T02:08:58;3.72;;;2.60;;
73898;SDS011;62234;50.892;12.724;2023-06-26T02:11:25;3.25;;;2.70;;
73898;SDS011;62234;50.892;12.724;2023-06-26T02:13:51;3.92;;;2.38;;
73898;SDS011;62234;50.892;12.724;2023-06-26T02:16:17;3.20;;;2.70;;
73898;SDS011;62234;50.892;12.724;2023-06-26T02:18:43;3.25;;;2.72;;
73898;SDS011;62234;50.892;12.724;2023-06-26T02:21:08;3.00;;;2.70;;
73898;SDS011;62234;50.892;12.724;2023-06-26T02:23:34;5.13;;;2.45;;
73898;SDS011;62234;50.892;12.724;2023-06-26T02:26:00;2.60;;;2.40;;
73898;SDS011;62234;50.892;12.724;2023-06-26T02:28:26;2.83;;;2.58;;
73898;SDS011;62234;50.892;12.724;2023-06-26T02:30:52;3.08;;;2.40;;
73898;SDS011;62234;50.892;12.724;2023-06-26T02:33:18;3.20;;;2.08;;
73898;SDS011;62234;50.892;12.724;2023-06-26T02:35:44;2.10;;;2.00;;
73898;SDS011;62234;50.892;12.724;2023-06-26T02:38:10;2.55;;;2.33;;
73898;SDS011;62234;50.892;12.724;2023-06-26T02:40:37;4.93;;;2.63;;
73898;SDS011;62234;50.892;12.724;2023-06-26T02:43:03;2.50;;;2.30;;
73898;SDS011;62234;50.892;12.724;2023-06-26T02:45:29;4.78;;;2.20;;
73898;SDS011;62234;50.892;12.724;2023-06-26T02:47:55;2.50;;;2.30;;
73898;SDS011;62234;50.892;12.724;2023-06-26T02:50:21;2.20;;;2.10;;
73898;SDS011;62234;50.892;12.724;2023-06-26T02:52:47;3.00;;;2.20;;
73898;SDS011;62234;50.892;12.724;2023-06-26T02:55:17;2.70;;;2.20;;
73898;SDS011;62234;50.892;12.724;2023-06-26T02:57:43;2.47;;;2.28;;
73898;SDS011;62234;50.892;12.724;2023-06-26T03:00:09;4.15;;;2.72;;
73898;SDS011;62234;50.892;12.724;2023-06-26T03:02:36;3.95;;;2.53;;
73898;SDS011;62234;50.892;12.724;2023-06-26T03:05:02;3.33;;;2.60;;
73898;SDS011;62234;50.892;12.724;2023-06-26T03:07:29;4.03;;;2.38;;
73898;SDS011;62234;50.892;12.724;2023-06-26T03:09:55;2.75;;;2.53;;
73898;SDS011;62234;50.892;12.724;2023-06-26T03:12:21;3.05;;;2.75;;
73898;SDS011;62234;50.892;12.724;2023-06-26T03:14:47;3.17;;;2.42;;
73898;SDS011;62234;50.892;12.724;2023-06-26T03:17:13;2.53;;;2.33;;
73898;SDS011;62234;50.892;12.724;2023-06-26T03:19:38;2.55;;;2.35;;
73898;SDS011;62234;50.892;12.724;2023-06-26T03:22:04;3.40;;;2.47;;
73898;SDS011;62234;50.892;12.724;2023-06-26T03:24:30;2.33;;;2.13;;
73898;SDS011;62234;50.892;12.724;2023-06-26T03:26:56;2.33;;;2.13;;
73898;SDS011;62234;50.892;12.724;2023-06-26T03:29:22;2.92;;;2.40;;
73898;SDS011;62234;50.892;12.724;2023-06-26T03:31:48;3.00;;;2.20;;
73898;SDS011;62234;50.892;12.724;2023-06-26T03:34:14;2.75;;;2.47;;
73898;SDS011;62234;50.892;12.724;2023-06-26T03:36:40;2.88;;;2.60;;
73898;SDS011;62234;50.892;12.724;2023-06-26T03:39:06;2.90;;;2.63;;
73898;SDS011;62234;50.892;12.724;2023-06-26T03:41:32;4.10;;;2.75;;
73898;SDS011;62234;50.892;12.724;2023-06-26T03:43:58;3.70;;;2.67;;
73898;SDS011;62234;50.892;12.724;2023-06-26T03:46:25;3.08;;;2.78;;
73898;SDS011;62234;50.892;12.724;2023-06-26T03:48:51;4.93;;;2.60;;
73898;SDS011;62234;50.892;12.724;2023-06-26T03:51:17;3.00;;;2.70;;
73898;SDS011;62234;50.892;12.724;2023-06-26T03:53:43;2.72;;;2.10;;
73898;SDS011;62234;50.892;12.724;2023-06-26T03:56:09;4.25;;;2.75;;
73898;SDS011;62234;50.892;12.724;2023-06-26T03:58:35;2.67;;;2.40;;
73898;SDS011;62234;50.892;12.724;2023-06-26T04:01:00;3.05;;;2.53;;
73898;SDS011;62234;50.892;12.724;2023-06-26T04:03:26;3.13;;;2.85;;
73898;SDS011;62234;50.892;12.724;2023-06-26T04:05:52;3.35;;;2.88;;
73898;SDS011;62234;50.892;12.724;2023-06-26T04:08:18;2.67;;;2.47;;
73898;SDS011;62234;50.892;12.724;2023-06-26T04:10:45;2.53;;;2.33;;
73898;SDS011;62234;50.892;12.724;2023-06-26T04:13:12;3.20;;;2.40;;
73898;SDS011;62234;50.892;12.724;2023-06-26T04:15:39;2.92;;;2.72;;
73898;SDS011;62234;50.892;12.724;2023-06-26T04:18:04;2.70;;;2.47;;
73898;SDS011;62234;50.892;12.724;2023-06-26T04:20:30;3.00;;;2.70;;
73898;SDS011;62234;50.892;12.724;2023-06-26T04:22:56;2.88;;;2.67;;
73898;SDS011;62234;50.892;12.724;2023-06-26T04:25:22;4.20;;;2.70;;
73898;SDS011;62234;50.892;12.724;2023-06-26T04:27:48;2.78;;;2.58;;
73898;SDS011;62234;50.892;12.724;2023-06-26T04:30:14;2.90;;;2.42;;
73898;SDS011;62234;50.892;12.724;2023-06-26T04:32:40;2.80;;;2.47;;
73898;SDS011;62234;50.892;12.724;2023-06-26T04:35:06;2.92;;;2.63;;
73898;SDS011;62234;50.892;12.724;2023-06-26T04:37:32;2.25;;;2.15;;
73898;SDS011;62234;50.892;12.724;2023-06-26T04:39:58;3.90;;;2.67;;
73898;SDS011;62234;50.892;12.724;2023-06-26T04:42:24;3.70;;;2.58;;
73898;SDS011;62234;50.892;12.724;2023-06-26T04:44:50;3.00;;;2.70;;
73898;SDS011;62234;50.892;12.724;2023-06-26T04:47:16;2.70;;;2.50;;
73898;SDS011;62234;50.892;12.724;2023-06-26T04:49:42;3.63;;;2.85;;
73898;SDS011;62234;50.892;12.724;2023-06-26T04:52:11;2.67;;;2.47;;
73898;SDS011;62234;50.892;12.724;2023-06-26T04:54:38;2.88;;;2.63;;
73898;SDS011;62234;50.892;12.724;2023-06-26T04:57:04;4.63;;;2.55;;
73898;SDS011;62234;50.892;12.724;2023-06-26T04:59:30;2.50;;;2.30;;
73898;SDS011;62234;50.892;12.724;2023-06-26T05:01:56;4.13;;;2.30;;
73898;SDS011;62234;50.892;12.724;2023-06-26T05:04:22;2.92;;;2.55;;
73898;SDS011;62234;50.892;12.724;2023-06-26T05:06:48;3.20;;;2.90;;
73898;SDS011;62234;50.892;12.724;2023-06-26T05:09:14;3.78;;;2.30;;
73898;SDS011;62234;50.892;12.724;2023-06-26T05:11:40;2.15;;;2.05;;
73898;SDS011;62234;50.892;12.724;2023-06-26T05:14:06;2.83;;;2.45;;
73898;SDS011;62234;50.892;12.724;2023-06-26T05:16:32;3.17;;;2.80;;
73898;SDS011;62234;50.892;12.724;2023-06-26T05:18:59;4.70;;;2.75;;
73898;SDS011;62234;50.892;12.724;2023-06-26T05:21:25;5.32;;;2.88;;
73898;SDS011;62234;50.892;12.724;2023-06-26T05:23:51;2.80;;;2.55;;
73898;SDS011;62234;50.892;12.724;2023-06-26T05:26:17;3.10;;;2.33;;
73898;SDS011;62234;50.892;12.724;2023-06-26T05:28:43;5.35;;;2.70;;
73898;SDS011;62234;50.892;12.724;2023-06-26T05:31:13;3.10;;;2.90;;
73898;SDS011;62234;50.892;12.724;2023-06-26T05:33:39;2.75;;;2.33;;
73898;SDS011;62234;50.892;12.724;2023-06-26T05:36:08;3.33;;;3.03;;
73898;SDS011;62234;50.892;12.724;2023-06-26T05:38:34;3.53;;;2.97;;
73898;SDS011;62234;50.892;12.724;2023-06-26T05:41:00;3.22;;;2.50;;
73898;SDS011;62234;50.892;12.724;2023-06-26T05:43:26;4.07;;;2.83;;
73898;SDS011;62234;50.892;12.724;2023-06-26T05:45:52;3.03;;;2.80;;
73898;SDS011;62234;50.892;12.724;2023-06-26T05:48:18;3.55;;;2.50;;
73898;SDS011;62234;50.892;12.724;2023-06-26T05:50:44;4.32;;;2.45;;
73898;SDS011;62234;50.892;12.724;2023-06-26T05:53:10;3.30;;;2.35;;
73898;SDS011;62234;50.892;12.724;2023-06-26T05:55:36;3.00;;;2.28;;
73898;SDS011;62234;50.892;12.724;2023-06-26T05:58:02;3.10;;;2.90;;
73898;SDS011;62234;50.892;12.724;2023-06-26T06:00:28;3.15;;;2.92;;
73898;SDS011;62234;50.892;12.724;2023-06-26T06:02:54;3.58;;;2.80;;
73898;SDS011;62234;50.892;12.724;2023-06-26T06:05:21;5.15;;;3.20;;
73898;SDS011;62234;50.892;12.724;2023-06-26T06:07:47;4.13;;;2.88;;
73898;SDS011;62234;50.892;12.724;2023-06-26T06:10:13;2.95;;;2.75;;
73898;SDS011;62234;50.892;12.724;2023-06-26T06:12:39;3.63;;;3.33;;
73898;SDS011;62234;50.892;12.724;2023-06-26T06:15:05;4.10;;;3.00;;
73898;SDS011;62234;50.892;12.724;2023-06-26T06:17:31;3.95;;;3.22;;
73898;SDS011;62234;50.892;12.724;2023-06-26T06:19:57;5.43;;;3.22;;
73898;SDS011;62234;50.892;12.724;2023-06-26T06:22:23;3.53;;;3.22;;
73898;SDS011;62234;50.892;12.724;2023-06-26T06:24:49;4.35;;;3.53;;
73898;SDS011;62234;50.892;12.724;2023-06-26T06:27:16;4.00;;;3.13;;
73898;SDS011;62234;50.892;12.724;2023-06-26T06:29:42;4.72;;;3.33;;
73898;SDS011;62234;50.892;12.724;2023-06-26T06:32:08;3.90;;;3.30;;
73898;SDS011;62234;50.892;12.724;2023-06-26T06:34:34;5.03;;;3.25;;
73898;SDS011;62234;50.892;12.724;2023-06-26T06:37:00;3.92;;;3.42;;
73898;SDS011;62234;50.892;12.724;2023-06-26T06:39:26;3.78;;;3.28;;
73898;SDS011;62234;50.892;12.724;2023-06-26T06:41:52;4.20;;;3.55;;
73898;SDS011;62234;50.892;12.724;2023-06-26T06:44:17;3.88;;;3.22;;
73898;SDS011;62234;50.892;12.724;2023-06-26T06:46:43;7.50;;;3.50;;
73898;SDS011;62234;50.892;12.724;2023-06-26T06:49:09;4.03;;;2.95;;
73898;SDS011;62234;50.892;12.724;2023-06-26T06:51:35;3.30;;;3.00;;
73898;SDS011;62234;50.892;12.724;2023-06-26T06:54:01;5.68;;;3.50;;
73898;SDS011;62234;50.892;12.724;2023-06-26T06:56:27;4.95;;;3.40;;
73898;SDS011;62234;50.892;12.724;2023-06-26T06:58:53;4.68;;;3.10;;
73898;SDS011;62234;50.892;12.724;2023-06-26T07:01:19;3.72;;;3.20;;
73898;SDS011;62234;50.892;12.724;2023-06-26T07:03:45;4.15;;;3.33;;
73898;SDS011;62234;50.892;12.724;2023-06-26T07:06:11;6.22;;;3.85;;
73898;SDS011;62234;50.892;12.724;2023-06-26T07:08:37;4.90;;;3.75;;
73898;SDS011;62234;50.892;12.724;2023-06-26T07:11:03;6.45;;;3.58;;
73898;SDS011;62234;50.892;12.724;2023-06-26T07:13:29;6.03;;;3.58;;
73898;SDS011;62234;50.892;12.724;2023-06-26T07:15:55;3.88;;;3.42;;
73898;SDS011;62234;50.892;12.724;2023-06-26T07:18:20;4.85;;;3.50;;
73898;SDS011;62234;50.892;12.724;2023-06-26T07:20:46;4.85;;;3.63;;
73898;SDS011;62234;50.892;12.724;2023-06-26T07:23:12;5.40;;;3.83;;
73898;SDS011;62234;50.892;12.724;2023-06-26T07:25:38;4.13;;;3.72;;
73898;SDS011;62234;50.892;12.724;2023-06-26T07:28:09;3.95;;;3.40;;
73898;SDS011;62234;50.892;12.724;2023-06-26T07:30:35;5.53;;;3.33;;
73898;SDS011;62234;50.892;12.724;2023-06-26T07:33:01;3.72;;;3.35;;
73898;SDS011;62234;50.892;12.724;2023-06-26T07:35:27;3.47;;;3.17;;
73898;SDS011;62234;50.892;12.724;2023-06-26T07:37:53;4.57;;;3.60;;
73898;SDS011;62234;50.892;12.724;2023-06-26T07:40:19;5.50;;;3.58;;
73898;SDS011;62234;50.892;12.724;2023-06-26T07:42:45;4.28;;;3.45;;
73898;SDS011;62234;50.892;12.724;2023-06-26T07:45:11;5.25;;;3.45;;
73898;SDS011;62234;50.892;12.724;2023-06-26T07:47:37;4.68;;;3.33;;
73898;SDS011;62234;50.892;12.724;2023-06-26T07:50:03;5.40;;;3.90;;
73898;SDS011;62234;50.892;12.724;2023-06-26T07:52:29;4.18;;;3.78;;
73898;SDS011;62234;50.892;12.724;2023-06-26T07:54:56;5.57;;;4.10;;
73898;SDS011;62234;50.892;12.724;2023-06-26T07:57:22;6.07;;;3.80;;
73898;SDS011;62234;50.892;12.724;2023-06-26T07:59:48;4.03;;;3.38;;
73898;SDS011;62234;50.892;12.724;2023-06-26T08:02:14;4.55;;;3.60;;
73898;SDS011;62234;50.892;12.724;2023-06-26T08:04:40;4.28;;;3.70;;
73898;SDS011;62234;50.892;12.724;2023-06-26T08:07:06;6.32;;;4.32;;
73898;SDS011;62234;50.892;12.724;2023-06-26T08:09:32;9.02;;;3.85;;
73898;SDS011;62234;50.892;12.724;2023-06-26T08:11:58;3.60;;;3.28;;
73898;SDS011;62234;50.892;12.724;2023-06-26T08:14:24;4.28;;;3.45;;
73898;SDS011;62234;50.892;12.724;2023-06-26T08:16:50;5.93;;;3.72;;
73898;SDS011;62234;50.892;12.724;2023-06-26T08:19:17;4.97;;;3.35;;
73898;SDS011;62234;50.892;12.724;2023-06-26T08:21:43;3.83;;;3.50;;
73898;SDS011;62234;50.892;12.724;2023-06-26T08:24:09;4.30;;;3.85;;
73898;SDS011;62234;50.892;12.724;2023-06-26T08:26:35;3.83;;;3.42;;
73898;SDS011;62234;50.892;12.724;2023-06-26T08:29:02;5.72;;;3.83;;
73898;SDS011;62234;50.892;12.724;2023-06-26T08:31:36;4.53;;;3.63;;
73898;SDS011;62234;50.892;12.724;2023-06-26T08:34:02;4.35;;;3.55;;
73898;SDS011;62234;50.892;12.724;2023-06-26T08:36:28;4.57;;;3.72;;
73898;SDS011;62234;50.892;12.724;2023-06-26T08:38:54;5.85;;;3.38;;
73898;SDS011;62234;50.892;12.724;2023-06-26T08:41:20;4.45;;;3.80;;
73898;SDS011;62234;50.892;12.724;2023-06-26T08:43:46;4.10;;;3.20;;
73898;SDS011;62234;50.892;12.724;2023-06-26T08:46:12;4.03;;;3.60;;
73898;SDS011;62234;50.892;12.724;2023-06-26T08:48:39;6.43;;;3.65;;
73898;SDS011;62234;50.892;12.724;2023-06-26T08:51:09;4.05;;;3.47;;
73898;SDS011;62234;50.892;12.724;2023-06-26T08:53:43;3.95;;;3.55;;
73898;SDS011;62234;50.892;12.724;2023-06-26T08:56:14;5.63;;;3.85;;
73898;SDS011;62234;50.892;12.724;2023-06-26T08:58:40;3.35;;;3.05;;
73898;SDS011;62234;50.892;12.724;2023-06-26T09:01:06;4.28;;;3.38;;
73898;SDS011;62234;50.892;12.724;2023-06-26T09:03:32;4.80;;;3.60;;
73898;SDS011;62234;50.892;12.724;2023-06-26T09:05:59;4.30;;;3.45;;
73898;SDS011;62234;50.892;12.724;2023-06-26T09:08:25;4.28;;;3.00;;
73898;SDS011;62234;50.892;12.724;2023-06-26T09:10:51;6.32;;;3.38;;
73898;SDS011;62234;50.892;12.724;2023-06-26T09:13:17;3.75;;;3.45;;
73898;SDS011;62234;50.892;12.724;2023-06-26T09:15:44;4.97;;;3.35;;
73898;SDS011;62234;50.892;12.724;2023-06-26T09:18:10;3.70;;;3.40;;
73898;SDS011;62234;50.892;12.724;2023-06-26T09:20:36;3.88;;;3.55;;
73898;SDS011;62234;50.892;12.724;2023-06-26T09:23:02;6.38;;;3.63;;
73898;SDS011;62234;50.892;12.724;2023-06-26T09:25:29;5.22;;;3.50;;
73898;SDS011;62234;50.892;12.724;2023-06-26T09:27:55;5.38;;;3.80;;
73898;SDS011;62234;50.892;12.724;2023-06-26T09:30:21;3.72;;;3.40;;
73898;SDS011;62234;50.892;12.724;2023-06-26T09:32:47;4.93;;;3.67;;
73898;SDS011;62234;50.892;12.724;2023-06-26T09:35:15;5.15;;;3.80;;
73898;SDS011;62234;50.892;12.724;2023-06-26T09:37:42;4.20;;;3.83;;
73898;SDS011;62234;50.892;12.724;2023-06-26T09:40:08;7.05;;;3.75;;
73898;SDS011;62234;50.892;12.724;2023-06-26T09:42:35;6.00;;;3.88;;
73898;SDS011;62234;50.892;12.724;2023-06-26T09:45:01;3.28;;;2.97;;
73898;SDS011;62234;50.892;12.724;2023-06-26T09:47:29;3.42;;;3.13;;
73898;SDS011;62234;50.892;12.724;2023-06-26T09:49:55;4.20;;;3.72;;
73898;SDS011;62234;50.892;12.724;2023-06-26T09:52:21;6.65;;;3.55;;
73898;SDS011;62234;50.892;12.724;2023-06-26T09:57:17;3.67;;;3.30;;
73898;SDS011;62234;50.892;12.724;2023-06-26T09:59:44;4.25;;;2.90;;
73898;SDS011;62234;50.892;12.724;2023-06-26T10:02:10;5.93;;;3.63;;
73898;SDS011;62234;50.892;12.724;2023-06-26T10:04:36;3.42;;;3.13;;
73898;SDS011;62234;50.892;12.724;2023-06-26T10:07:04;3.92;;;3.63;;
73898;SDS011;62234;50.892;12.724;2023-06-26T10:09:30;3.65;;;3.25;;
73898;SDS011;62234;50.892;12.724;2023-06-26T10:11:58;4.60;;;4.13;;
73898;SDS011;62234;50.892;12.724;2023-06-26T10:14:26;3.50;;;3.10;;
73898;SDS011;62234;50.892;12.724;2023-06-26T10:16:52;4.13;;;3.63;;
73898;SDS011;62234;50.892;12.724;2023-06-26T10:19:19;4.38;;;3.45;;
73898;SDS011;62234;50.892;12.724;2023-06-26T10:21:50;3.92;;;3.47;;
73898;SDS011;62234;50.892;12.724;2023-06-26T10:24:17;4.55;;;3.42;;
73898;SDS011;62234;50.892;12.724;2023-06-26T10:26:44;5.00;;;3.75;;
73898;SDS011;62234;50.892;12.724;2023-06-26T10:29:11;3.50;;;3.20;;
73898;SDS011;62234;50.892;12.724;2023-06-26T10:31:37;4.47;;;3.72;;
73898;SDS011;62234;50.892;12.724;2023-06-26T10:34:03;4.05;;;3.60;;
73898;SDS011;62234;50.892;12.724;2023-06-26T10:36:31;5.88;;;3.83;;
73898;SDS011;62234;50.892;12.724;2023-06-26T10:38:58;3.78;;;3.42;;
73898;SDS011;62234;50.892;12.724;2023-06-26T10:41:24;3.90;;;3.50;;
73898;SDS011;62234;50.892;12.724;2023-06-26T10:46:28;3.83;;;3.53;;
73898;SDS011;62234;50.892;12.724;2023-06-26T10:48:58;4.03;;;3.38;;
73898;SDS011;62234;50.892;12.724;2023-06-26T10:51:25;3.88;;;3.28;;
73898;SDS011;62234;50.892;12.724;2023-06-26T10:53:53;4.22;;;3.42;;
73898;SDS011;62234;50.892;12.724;2023-06-26T10:56:19;5.82;;;3.58;;
73898;SDS011;62234;50.892;12.724;2023-06-26T10:58:45;4.97;;;3.90;;
73898;SDS011;62234;50.892;12.724;2023-06-26T11:03:39;4.95;;;3.97;;
73898;SDS011;62234;50.892;12.724;2023-06-26T11:06:14;6.05;;;4.00;;
73898;SDS011;62234;50.892;12.724;2023-06-26T11:08:44;5.63;;;3.95;;
73898;SDS011;62234;50.892;12.724;2023-06-26T11:11:10;4.57;;;3.70;;
73898;SDS011;62234;50.892;12.724;2023-06-26T11:13:36;3.83;;;3.40;;
73898;SDS011;62234;50.892;12.724;2023-06-26T11:16:02;5.30;;;4.05;;
73898;SDS011;62234;50.892;12.724;2023-06-26T11:18:30;4.57;;;3.88;;
73898;SDS011;62234;50.892;12.724;2023-06-26T11:21:04;5.07;;;3.80;;
73898;SDS011;62234;50.892;12.724;2023-06-26T11:23:30;4.55;;;4.15;;
73898;SDS011;62234;50.892;12.724;2023-06-26T11:25:57;4.85;;;3.85;;
73898;SDS011;62234;50.892;12.724;2023-06-26T11:28:23;4.72;;;4.07;;
73898;SDS011;62234;50.892;12.724;2023-06-26T11:30:49;4.53;;;4.13;;
73898;SDS011;62234;50.892;12.724;2023-06-26T11:33:15;4.25;;;3.85;;
73898;SDS011;62234;50.892;12.724;2023-06-26T11:35:41;6.43;;;4.25;;
73898;SDS011;62234;50.892;12.724;2023-06-26T11:38:07;4.43;;;3.85;;
73898;SDS011;62234;50.892;12.724;2023-06-26T11:40:34;5.63;;;4.05;;
73898;SDS011;62234;50.892;12.724;2023-06-26T11:43:01;7.20;;;4.13;;
73898;SDS011;62234;50.892;12.724;2023-06-26T11:45:28;4.70;;;4.18;;
73898;SDS011;62234;50.892;12.724;2023-06-26T11:47:55;5.30;;;3.85;;
73898;SDS011;62234;50.892;12.724;2023-06-26T11:50:21;7.03;;;5.22;;
73898;SDS011;62234;50.892;12.724;2023-06-26T11:52:57;6.38;;;4.28;;
73898;SDS011;62234;50.892;12.724;2023-06-26T11:55:24;5.80;;;4.03;;
73898;SDS011;62234;50.892;12.724;2023-06-26T11:57:50;4.50;;;4.07;;
73898;SDS011;62234;50.892;12.724;2023-06-26T12:00:16;4.88;;;4.15;;
73898;SDS011;62234;50.892;12.724;2023-06-26T12:02:44;6.07;;;4.20;;
73898;SDS011;62234;50.892;12.724;2023-06-26T12:05:10;5.80;;;3.83;;
73898;SDS011;62234;50.892;12.724;2023-06-26T12:07:37;6.18;;;4.40;;
73898;SDS011;62234;50.892;12.724;2023-06-26T12:10:03;5.05;;;3.95;;
73898;SDS011;62234;50.892;12.724;2023-06-26T12:12:29;4.88;;;4.05;;
73898;SDS011;62234;50.892;12.724;2023-06-26T12:14:56;4.68;;;3.45;;
73898;SDS011;62234;50.892;12.724;2023-06-26T12:17:23;5.00;;;3.85;;
73898;SDS011;62234;50.892;12.724;2023-06-26T12:19:50;7.38;;;4.10;;
73898;SDS011;62234;50.892;12.724;2023-06-26T12:22:16;5.18;;;4.18;;
73898;SDS011;62234;50.892;12.724;2023-06-26T12:24:43;5.50;;;4.00;;
73898;SDS011;62234;50.892;12.724;2023-06-26T12:27:10;4.63;;;3.72;;
73898;SDS011;62234;50.892;12.724;2023-06-26T12:29:37;4.20;;;3.47;;
73898;SDS011;62234;50.892;12.724;2023-06-26T12:32:03;7.38;;;4.68;;
73898;SDS011;62234;50.892;12.724;2023-06-26T12:34:32;5.97;;;4.00;;
73898;SDS011;62234;50.892;12.724;2023-06-26T12:39:24;5.45;;;3.85;;
73898;SDS011;62234;50.892;12.724;2023-06-26T12:41:53;4.55;;;4.15;;
73898;SDS011;62234;50.892;12.724;2023-06-26T12:44:26;5.63;;;4.03;;
73898;SDS011;62234;50.892;12.724;2023-06-26T12:46:59;6.53;;;3.88;;
73898;SDS011;62234;50.892;12.724;2023-06-26T12:49:29;4.85;;;3.95;;
73898;SDS011;62234;50.892;12.724;2023-06-26T12:51:55;4.22;;;3.38;;
73898;SDS011;62234;50.892;12.724;2023-06-26T12:54:21;5.47;;;3.80;;
73898;SDS011;62234;50.892;12.724;2023-06-26T12:56:47;4.68;;;3.65;;
73898;SDS011;62234;50.892;12.724;2023-06-26T12:59:13;4.60;;;3.35;;
73898;SDS011;62234;50.892;12.724;2023-06-26T13:01:39;4.95;;;4.00;;
73898;SDS011;62234;50.892;12.724;2023-06-26T13:04:05;4.30;;;3.85;;
73898;SDS011;62234;50.892;12.724;2023-06-26T13:06:33;4.05;;;3.65;;
73898;SDS011;62234;50.892;12.724;2023-06-26T13:08:59;5.43;;;3.83;;
73898;SDS011;62234;50.892;12.724;2023-06-26T13:11:24;4.65;;;3.90;;
73898;SDS011;62234;50.892;12.724;2023-06-26T13:13:50;4.05;;;3.50;;
73898;SDS011;62234;50.892;12.724;2023-06-26T13:16:16;3.72;;;3.40;;
73898;SDS011;62234;50.892;12.724;2023-06-26T13:18:43;4.07;;;3.67;;
73898;SDS011;62234;50.892;12.724;2023-06-26T13:21:09;4.65;;;3.40;;
73898;SDS011;62234;50.892;12.724;2023-06-26T13:23:35;4.10;;;3.70;;
73898;SDS011;62234;50.892;12.724;2023-06-26T13:26:01;4.28;;;3.88;;
73898;SDS011;62234;50.892;12.724;2023-06-26T13:28:27;4.88;;;3.80;;
73898;SDS011;62234;50.892;12.724;2023-06-26T13:30:53;6.43;;;4.20;;
73898;SDS011;62234;50.892;12.724;2023-06-26T13:33:19;4.63;;;3.45;;
73898;SDS011;62234;50.892;12.724;2023-06-26T13:35:45;4.78;;;3.67;;
73898;SDS011;62234;50.892;12.724;2023-06-26T13:38:11;4.10;;;3.70;;
73898;SDS011;62234;50.892;12.724;2023-06-26T13:40:37;4.45;;;3.97;;
73898;SDS011;62234;50.892;12.724;2023-06-26T13:43:03;4.78;;;4.18;;
73898;SDS011;62234;50.892;12.724;2023-06-26T13:45:30;7.53;;;3.53;;
73898;SDS011;62234;50.892;12.724;2023-06-26T13:47:55;6.75;;;4.15;;
73898;SDS011;62234;50.892;12.724;2023-06-26T13:50:22;5.28;;;3.83;;
73898;SDS011;62234;50.892;12.724;2023-06-26T13:52:48;4.63;;;4.10;;
73898;SDS011;62234;50.892;12.724;2023-06-26T13:55:14;4.47;;;3.70;;
73898;SDS011;62234;50.892;12.724;2023-06-26T13:57:40;6.15;;;4.07;;
73898;SDS011;62234;50.892;12.724;2023-06-26T14:00:07;6.07;;;3.75;;
73898;SDS011;62234;50.892;12.724;2023-06-26T14:02:33;4.45;;;3.30;;
73898;SDS011;62234;50.892;12.724;2023-06-26T14:04:59;4.20;;;3.70;;
73898;SDS011;62234;50.892;12.724;2023-06-26T14:07:25;4.65;;;3.55;;
73898;SDS011;62234;50.892;12.724;2023-06-26T14:09:50;4.80;;;3.58;;
73898;SDS011;62234;50.892;12.724;2023-06-26T14:12:16;5.63;;;3.42;;
73898;SDS011;62234;50.892;12.724;2023-06-26T14:14:43;3.60;;;3.30;;
73898;SDS011;62234;50.892;12.724;2023-06-26T14:17:09;4.55;;;3.08;;
73898;SDS011;62234;50.892;12.724;2023-06-26T14:19:40;3.88;;;3.05;;
73898;SDS011;62234;50.892;12.724;2023-06-26T14:22:06;3.83;;;3.47;;
73898;SDS011;62234;50.892;12.724;2023-06-26T14:24:32;4.35;;;3.72;;
73898;SDS011;62234;50.892;12.724;2023-06-26T14:26:58;3.40;;;3.05;;
73898;SDS011;62234;50.892;12.724;2023-06-26T14:29:24;3.70;;;3.30;;
73898;SDS011;62234;50.892;12.724;2023-06-26T14:31:50;4.00;;;3.60;;
73898;SDS011;62234;50.892;12.724;2023-06-26T14:34:16;3.60;;;3.20;;
73898;SDS011;62234;50.892;12.724;2023-06-26T14:36:42;3.55;;;3.25;;
73898;SDS011;62234;50.892;12.724;2023-06-26T14:39:08;4.57;;;3.10;;